Terminal Aerodrome Forecast
Issued by NWS

Home | Current Version | Previous Version | Text Only | Print | Product List | Glossary On
Versions: 1 2 3 4 5 6 7 8 9 10 11 12 13 14 15 16 17 18 19 20 21 22 23 24 25 26 27
174
FTUS42 KGSP 222009 AAB
TAFAND
TAF AMD
KAND 222009Z 2220/2318 11006KT P6SM -SHRA SCT015 BKN035
      TEMPO 2220/2224 BKN015
     FM230000 12004KT P6SM VCSH SCT010 OVC035
     FM230700 18004KT 6SM BR OVC020
     FM231000 20004KT P6SM OVC008
     FM231400 22008KT P6SM SCT020 BKN040
     FM231600 23011G19KT P6SM SCT050=

USA.gov is the U.S. government's official web portal to all federal, state and local government web resources and services.